Strijen, Netherlands
Current Conditions -  °F | °C
As of 7:25 AM on Friday 19 Dec 2014 (Local Time) from EHRD Reporting Station
Moderate Rain Moderate Rain  
Wind Chill: 54°   Ceiling: 800
Heat Index: 54°   Visibility: 2.5mi
Dew Point: 52°   Wind: 25mph
Humidity: 94%   Direction: 230°SW
Pressure: 29.74"   Gusts: NA
Location:  51.75°N, 4.55°E
Report Text: EHRD 190625Z AUTO 23022KT 200V260 4000 RA FEW006 SCT007 BKN00812/11 Q1007 BECMG 6000
Loading
Personal Weather Stations






























Interactive Weather Map New forecast layout! Learn more

10-Day Weather Forecast

Advertisements
Track Severe Weather on mobile